Time;durP1;ratioP1;P1;durP2;ratioP2;P2;SDS_P1;SDS_P2;PMS_P1;PMS_P2;Temp;Humidity;BMP_temperature;BMP_pressure;BME280_temperature;BME280_humidity;BME280_pressure;Samples;Min_cycle;Max_cycle;Signal;HPM_P1;HPM_P2
2021/07/04 00:02:06;;;;;;;8.23;7.35;;;20.00;76.50;;;;;;5087129;27;20064;-63
2021/07/04 00:04:32;;;;;;;8.20;7.03;;;20.00;76.90;;;;;;5086420;27;20075;-63
2021/07/04 00:06:58;;;;;;;8.38;7.15;;;20.00;76.70;;;;;;5087956;28;20056;-64
2021/07/04 00:09:24;;;;;;;9.40;6.72;;;20.00;76.60;;;;;;5086177;28;20028;-64
2021/07/04 00:11:50;;;;;;;7.57;6.43;;;20.00;76.80;;;;;;5087546;28;20040;-64
2021/07/04 00:14:16;;;;;;;7.93;7.13;;;20.00;76.90;;;;;;5079175;28;20032;-63
2021/07/04 00:16:43;;;;;;;7.55;6.80;;;20.00;76.90;;;;;;5081641;27;20430;-64
2021/07/04 00:19:10;;;;;;;8.23;6.55;;;20.00;76.90;;;;;;5087133;28;20036;-64
2021/07/04 00:21:36;;;;;;;8.32;6.47;;;20.00;76.60;;;;;;5087002;27;20028;-63
2021/07/04 00:24:02;;;;;;;7.88;5.97;;;20.00;76.50;;;;;;5081156;27;20025;-63
2021/07/04 00:26:28;;;;;;;7.07;5.97;;;20.00;76.50;;;;;;5083523;27;20432;-63
2021/07/04 00:28:53;;;;;;;6.40;5.78;;;20.00;76.50;;;;;;5084120;27;20055;-64
2021/07/04 00:31:19;;;;;;;7.13;6.20;;;20.00;76.40;;;;;;5080583;28;20495;-63
2021/07/04 00:33:45;;;;;;;6.55;5.85;;;20.00;76.30;;;;;;5077139;27;20536;-63
2021/07/04 00:36:10;;;;;;;5.43;4.93;;;20.10;76.50;;;;;;5076603;27;20056;-63
2021/07/04 00:38:36;;;;;;;5.35;4.85;;;20.00;76.20;;;;;;5073207;28;20036;-63
2021/07/04 00:41:03;;;;;;;5.75;4.82;;;20.00;76.10;;;;;;5102775;27;20040;-63
2021/07/04 00:43:29;;;;;;;5.75;4.63;;;20.00;76.10;;;;;;5075544;28;20054;-63
2021/07/04 00:45:55;;;;;;;4.80;4.40;;;20.00;76.00;;;;;;5080706;27;20036;-64
2021/07/04 00:48:21;;;;;;;5.35;4.55;;;20.00;75.80;;;;;;5080610;28;20046;-63
2021/07/04 00:50:47;;;;;;;4.60;4.18;;;20.00;75.80;;;;;;5076630;28;20851;-63
2021/07/04 00:53:13;;;;;;;4.20;3.90;;;20.00;75.70;;;;;;5084485;27;20036;-64
2021/07/04 00:55:39;;;;;;;4.32;4.00;;;20.00;75.80;;;;;;5081979;28;20040;-63
2021/07/04 00:58:05;;;;;;;4.40;4.00;;;19.90;75.60;;;;;;5082265;27;20042;-62
2021/07/04 01:00:33;;;;;;;5.20;4.50;;;19.90;75.60;;;;;;5080551;28;20032;-64
2021/07/04 01:02:59;;;;;;;4.63;4.18;;;19.90;75.60;;;;;;5073430;28;20039;-63
2021/07/04 01:05:28;;;;;;;4.53;4.13;;;19.90;75.60;;;;;;5078201;28;20044;-63
2021/07/04 01:07:55;;;;;;;4.13;3.78;;;19.80;75.70;;;;;;5076012;28;20051;-63
2021/07/04 01:10:23;;;;;;;6.43;4.75;;;19.80;75.80;;;;;;5076233;27;20131;-64
2021/07/04 01:12:51;;;;;;;4.50;4.15;;;19.80;76.00;;;;;;5077149;28;20039;-63
2021/07/04 01:15:18;;;;;;;5.43;4.90;;;19.80;76.10;;;;;;5077142;28;20036;-63
2021/07/04 01:17:46;;;;;;;4.95;4.50;;;19.80;76.10;;;;;;5076680;27;20086;-63
2021/07/04 01:20:14;;;;;;;4.65;4.25;;;19.80;76.30;;;;;;5077699;28;20388;-63
2021/07/04 01:22:41;;;;;;;6.00;5.40;;;19.80;76.30;;;;;;5084891;27;20451;-63
2021/07/04 01:25:09;;;;;;;6.43;5.03;;;19.80;76.50;;;;;;5077937;27;20035;-63
2021/07/04 01:27:36;;;;;;;5.65;5.15;;;19.80;76.60;;;;;;5073216;28;20087;-64
2021/07/04 01:30:05;;;;;;;7.95;5.40;;;19.80;76.70;;;;;;5082016;27;20024;-63
2021/07/04 01:32:31;;;;;;;6.18;5.45;;;19.80;77.00;;;;;;5079436;27;20033;-63
2021/07/04 01:34:57;;;;;;;7.32;5.50;;;19.70;76.70;;;;;;5074169;28;20541;-63
2021/07/04 01:37:22;;;;;;;6.13;5.53;;;19.70;76.70;;;;;;5076279;27;20040;-63
2021/07/04 01:39:48;;;;;;;5.95;5.07;;;19.70;77.60;;;;;;5076505;28;20515;-64
2021/07/04 01:42:14;;;;;;;5.90;5.40;;;19.70;76.80;;;;;;5084793;28;20044;-64
2021/07/04 01:44:39;;;;;;;7.55;5.45;;;19.70;77.00;;;;;;5086212;27;20039;-64
2021/07/04 01:47:05;;;;;;;5.95;5.38;;;19.70;77.10;;;;;;5086290;28;20131;-63
2021/07/04 01:49:30;;;;;;;6.50;5.32;;;19.60;77.30;;;;;;5084835;27;20129;-63
2021/07/04 01:51:56;;;;;;;6.15;5.40;;;19.60;77.30;;;;;;5088984;28;20063;-63
2021/07/04 01:54:22;;;;;;;5.72;4.80;;;19.60;77.30;;;;;;5081601;28;20028;-63
2021/07/04 01:56:47;;;;;;;5.75;5.00;;;19.60;77.20;;;;;;5088533;27;20058;-64
2021/07/04 01:59:13;;;;;;;6.80;5.35;;;19.60;77.20;;;;;;5084288;28;20027;-63
2021/07/04 02:01:39;;;;;;;5.07;4.53;;;19.60;77.20;;;;;;5082296;28;20119;-63
2021/07/04 02:04:04;;;;;;;5.90;5.32;;;19.60;77.20;;;;;;5085688;28;20035;-64
2021/07/04 02:06:32;;;;;;;5.57;5.07;;;19.60;77.20;;;;;;5082945;27;20024;-64
2021/07/04 02:08:58;;;;;;;5.65;5.15;;;19.70;77.40;;;;;;5085395;27;20032;-63
2021/07/04 02:11:23;;;;;;;6.72;4.80;;;19.60;77.20;;;;;;5083093;28;20114;-64
2021/07/04 02:13:50;;;;;;;5.40;4.90;;;19.60;77.20;;;;;;5082688;27;20035;-63
2021/07/04 02:16:16;;;;;;;5.07;4.57;;;19.60;77.40;;;;;;5084951;28;20024;-63
2021/07/04 02:18:42;;;;;;;8.13;5.30;;;19.60;77.20;;;;;;5086293;27;20259;-64
2021/07/04 02:21:08;;;;;;;5.57;5.07;;;19.60;77.30;;;;;;5083242;28;20032;-63
2021/07/04 02:23:34;;;;;;;5.70;4.95;;;19.60;77.50;;;;;;5085435;28;20041;-63
2021/07/04 02:26:00;;;;;;;5.10;4.70;;;19.60;77.70;;;;;;5076545;27;20127;-63
2021/07/04 02:28:29;;;;;;;5.70;4.78;;;19.60;77.60;;;;;;5077456;27;20509;-63
2021/07/04 02:30:56;;;;;;;6.82;4.95;;;19.60;77.90;;;;;;5084652;27;20052;-62
2021/07/04 02:33:24;;;;;;;5.85;4.75;;;19.50;77.80;;;;;;5085983;27;20559;-63
2021/07/04 02:35:53;;;;;;;6.00;5.40;;;19.50;78.00;;;;;;5082475;28;20020;-63
2021/07/04 02:38:19;;;;;;;5.50;5.00;;;19.50;78.10;;;;;;5085197;27;20530;-63
2021/07/04 02:40:46;;;;;;;5.20;4.70;;;19.50;78.00;;;;;;5083945;27;20088;-62
2021/07/04 02:43:14;;;;;;;9.00;5.07;;;19.40;78.20;;;;;;5082502;28;20063;-63
2021/07/04 02:45:40;;;;;;;5.55;5.05;;;19.40;78.40;;;;;;5076510;28;20040;-63
2021/07/04 02:48:08;;;;;;;5.70;4.97;;;19.40;78.40;;;;;;5080718;27;20034;-63
2021/07/04 02:50:34;;;;;;;5.38;4.88;;;19.40;79.50;;;;;;5079662;27;20033;-63
2021/07/04 02:53:00;;;;;;;6.15;5.25;;;19.40;78.70;;;;;;5088182;27;20047;-63
2021/07/04 02:55:26;;;;;;;5.95;4.90;;;19.40;78.80;;;;;;5081588;28;20035;-63
2021/07/04 02:57:52;;;;;;;5.28;4.82;;;19.40;78.80;;;;;;5080535;27;20036;-63
2021/07/04 03:00:24;;;;;;;5.43;4.88;;;19.50;78.70;;;;;;5077304;28;20097;-63
2021/07/04 03:02:50;;;;;;;5.15;4.65;;;19.50;79.10;;;;;;5082828;28;20039;-64
2021/07/04 03:05:16;;;;;;;6.95;4.60;;;19.50;78.50;;;;;;5083413;27;20044;-63
2021/07/04 03:07:42;;;;;;;5.43;4.40;;;19.50;78.40;;;;;;5084668;28;20030;-63
2021/07/04 03:10:13;;;;;;;5.95;4.82;;;19.50;78.40;;;;;;5076372;28;20028;-63
2021/07/04 03:12:39;;;;;;;5.05;4.60;;;19.50;78.70;;;;;;5079021;27;20038;-64
2021/07/04 03:15:07;;;;;;;7.28;4.78;;;19.50;78.50;;;;;;5078755;27;20748;-63
2021/07/04 03:17:33;;;;;;;5.45;4.90;;;19.50;78.40;;;;;;5076123;27;20062;-63
2021/07/04 03:19:58;;;;;;;6.22;4.55;;;19.40;78.30;;;;;;5081941;28;20056;-63
2021/07/04 03:22:24;;;;;;;5.47;4.93;;;19.50;78.40;;;;;;5079779;28;20048;-64
2021/07/04 03:24:50;;;;;;;6.43;4.50;;;19.40;78.60;;;;;;5078320;27;20029;-64
2021/07/04 03:27:16;;;;;;;5.65;4.53;;;19.40;78.40;;;;;;5078200;28;20039;-63
2021/07/04 03:29:42;;;;;;;5.85;4.45;;;19.50;78.60;;;;;;5085308;27;20372;-62
2021/07/04 03:32:07;;;;;;;5.30;4.72;;;19.50;78.70;;;;;;5087178;27;20039;-63
2021/07/04 03:34:34;;;;;;;6.10;4.47;;;19.50;78.70;;;;;;5085781;27;20507;-63
2021/07/04 03:36:59;;;;;;;4.93;4.43;;;19.50;78.70;;;;;;5083751;27;20054;-63
2021/07/04 03:39:25;;;;;;;6.28;4.95;;;19.50;78.70;;;;;;5086525;28;20032;-63
2021/07/04 03:41:51;;;;;;;7.88;5.00;;;19.50;78.70;;;;;;5083068;27;20039;-63
2021/07/04 03:44:17;;;;;;;6.10;4.78;;;19.50;78.70;;;;;;5080944;28;20029;-63
2021/07/04 03:46:42;;;;;;;5.28;4.80;;;19.50;78.70;;;;;;5087582;27;20741;-64
2021/07/04 03:49:09;;;;;;;5.32;4.82;;;19.50;78.70;;;;;;5081315;27;20110;-64
2021/07/04 03:51:35;;;;;;;6.40;5.07;;;19.50;78.60;;;;;;5083237;28;20036;-63
2021/07/04 03:54:01;;;;;;;4.38;4.05;;;19.50;78.70;;;;;;5081576;27;20532;-63
2021/07/04 03:56:26;;;;;;;6.63;4.55;;;19.40;78.80;;;;;;5082734;27;20081;-62
2021/07/04 03:58:52;;;;;;;5.78;4.60;;;19.40;79.00;;;;;;5083394;28;20048;-63
2021/07/04 04:01:19;;;;;;;5.32;4.75;;;19.40;79.20;;;;;;5084997;27;20534;-63
2021/07/04 04:03:46;;;;;;;4.70;4.20;;;19.40;79.20;;;;;;5079739;28;20105;-64
2021/07/04 04:06:12;;;;;;;4.60;4.20;;;19.40;79.40;;;;;;5084921;27;20032;-64
2021/07/04 04:08:38;;;;;;;5.20;4.70;;;19.40;79.40;;;;;;5079651;27;20414;-64
2021/07/04 04:11:04;;;;;;;4.75;4.35;;;19.40;79.50;;;;;;5085224;28;20028;-63
2021/07/04 04:13:30;;;;;;;5.50;4.75;;;19.40;79.50;;;;;;5081057;27;20107;-63
2021/07/04 04:15:55;;;;;;;6.50;5.22;;;19.40;79.50;;;;;;5084684;28;20154;-64
2021/07/04 04:18:21;;;;;;;5.18;4.55;;;19.40;79.50;;;;;;5080468;27;20115;-62
2021/07/04 04:20:47;;;;;;;22.35;11.45;;;19.40;79.50;;;;;;5079507;27;20028;-64
2021/07/04 04:23:12;;;;;;;62.20;24.88;;;19.40;79.40;;;;;;5082433;28;20121;-63
2021/07/04 04:25:38;;;;;;;57.10;23.05;;;19.40;79.40;;;;;;5080371;27;20398;-63
2021/07/04 04:28:05;;;;;;;175.20;55.67;;;19.40;79.40;;;;;;5078542;28;20036;-63
2021/07/04 04:30:33;;;;;;;54.40;21.00;;;19.40;79.40;;;;;;5084175;27;20086;-63
2021/07/04 04:32:59;;;;;;;15.02;8.88;;;19.40;79.50;;;;;;5080570;28;20449;-63
2021/07/04 04:35:25;;;;;;;7.05;6.03;;;19.40;79.40;;;;;;5081296;28;20032;-63
2021/07/04 04:37:50;;;;;;;21.63;15.07;;;19.40;79.30;;;;;;5083894;27;20879;-63
2021/07/04 04:40:16;;;;;;;28.90;22.60;;;19.40;79.40;;;;;;5082516;28;20028;-63
2021/07/04 04:42:42;;;;;;;10.90;9.25;;;19.50;79.50;;;;;;5080424;27;20064;-64
2021/07/04 04:45:08;;;;;;;9.63;8.73;;;19.50;79.40;;;;;;5074958;27;20032;-63
2021/07/04 04:47:33;;;;;;;12.85;10.88;;;19.50;79.40;;;;;;5077988;28;20036;-66
2021/07/04 04:49:59;;;;;;;6.45;5.75;;;19.50;79.40;;;;;;5080347;27;20032;-65
2021/07/04 04:52:25;;;;;;;6.15;4.65;;;19.60;79.40;;;;;;5081074;27;20055;-64
2021/07/04 04:54:50;;;;;;;5.80;4.95;;;19.60;79.30;;;;;;5078664;28;20032;-64
2021/07/04 04:57:16;;;;;;;9.60;7.90;;;19.60;79.40;;;;;;5078417;27;20040;-63
2021/07/04 04:59:41;;;;;;;12.32;10.80;;;19.70;79.40;;;;;;5075683;28;20024;-63
2021/07/04 05:02:07;;;;;;;8.30;6.65;;;19.70;79.30;;;;;;5081229;27;20040;-64
2021/07/04 05:04:34;;;;;;;5.55;5.05;;;19.70;79.20;;;;;;5094915;27;20052;-62
2021/07/04 05:07:00;;;;;;;5.57;5.05;;;19.70;79.10;;;;;;5078791;28;20036;-63
2021/07/04 05:09:26;;;;;;;5.82;5.07;;;19.80;79.00;;;;;;5076995;27;20036;-63
2021/07/04 05:11:51;;;;;;;6.05;5.00;;;19.80;79.00;;;;;;5078603;28;20032;-64
2021/07/04 05:14:17;;;;;;;6.65;4.35;;;19.80;78.90;;;;;;5080199;27;20537;-64
2021/07/04 05:16:43;;;;;;;6.35;4.93;;;19.90;78.70;;;;;;5088792;27;20032;-64
2021/07/04 05:19:10;;;;;;;5.18;4.70;;;19.90;78.90;;;;;;5086628;28;20025;-64
2021/07/04 05:21:37;;;;;;;5.18;4.63;;;19.90;78.70;;;;;;5081044;27;20089;-63
2021/07/04 05:24:04;;;;;;;4.43;4.03;;;19.90;78.90;;;;;;5084907;28;21007;-63
2021/07/04 05:26:30;;;;;;;5.80;5.22;;;19.90;78.70;;;;;;5082514;27;20051;-64
2021/07/04 05:28:58;;;;;;;5.47;4.82;;;19.90;78.70;;;;;;5094731;27;20052;-63
2021/07/04 05:31:24;;;;;;;5.15;4.65;;;20.00;78.70;;;;;;5078625;28;20051;-64
2021/07/04 05:33:49;;;;;;;4.68;4.20;;;20.00;78.70;;;;;;5086166;27;20044;-63
2021/07/04 05:36:15;;;;;;;5.28;4.43;;;20.00;78.60;;;;;;5082356;28;20442;-64
2021/07/04 05:38:43;;;;;;;5.15;4.65;;;20.00;78.70;;;;;;5086259;28;20024;-64
2021/07/04 05:41:18;;;;;;;4.40;4.00;;;20.00;78.50;;;;;;5084680;27;20457;-63
2021/07/04 05:43:46;;;;;;;4.53;4.13;;;20.10;78.60;;;;;;5082014;28;20024;-64
2021/07/04 05:46:12;;;;;;;5.25;4.20;;;20.10;78.40;;;;;;5077554;28;20040;-63
2021/07/04 05:48:40;;;;;;;4.47;4.07;;;20.10;78.20;;;;;;5081028;27;20483;-64
2021/07/04 05:51:06;;;;;;;4.88;4.40;;;20.10;78.20;;;;;;5080708;27;20775;-63
2021/07/04 05:53:32;;;;;;;4.50;4.05;;;20.20;78.20;;;;;;5080957;28;20032;-66
2021/07/04 05:55:58;;;;;;;6.50;4.40;;;20.20;77.80;;;;;;5081584;28;20024;-66
2021/07/04 05:58:24;;;;;;;5.80;3.97;;;20.30;77.80;;;;;;5081544;27;20119;-66
2021/07/04 06:00:49;;;;;;;4.88;4.40;;;20.30;77.80;;;;;;5081072;27;20036;-63
2021/07/04 06:03:15;;;;;;;6.35;4.82;;;20.30;77.90;;;;;;5078685;28;20044;-64
2021/07/04 06:05:41;;;;;;;4.70;4.30;;;20.40;77.80;;;;;;5097390;27;20423;-64
2021/07/04 06:08:07;;;;;;;5.13;4.03;;;20.40;77.50;;;;;;5080680;27;20036;-64
2021/07/04 06:10:34;;;;;;;4.90;4.45;;;20.40;77.30;;;;;;5082503;27;20051;-64
2021/07/04 06:12:59;;;;;;;4.28;3.88;;;20.40;77.20;;;;;;5079622;27;20032;-64
2021/07/04 06:15:25;;;;;;;4.50;4.20;;;20.50;77.00;;;;;;5081881;28;20140;-64
2021/07/04 06:17:51;;;;;;;5.53;3.95;;;20.50;76.80;;;;;;5080693;27;20062;-64
2021/07/04 06:20:18;;;;;;;4.47;4.07;;;20.50;76.50;;;;;;5083462;28;20470;-64
2021/07/04 06:22:45;;;;;;;4.95;4.03;;;20.50;76.50;;;;;;5080949;27;20036;-64
2021/07/04 06:25:12;;;;;;;4.25;3.70;;;20.50;76.60;;;;;;5080079;27;20036;-64
2021/07/04 06:27:41;;;;;;;4.93;4.18;;;20.50;77.30;;;;;;5081360;28;20036;-64
2021/07/04 06:30:09;;;;;;;5.70;5.10;;;20.50;76.30;;;;;;5079918;27;20036;-63
2021/07/04 06:32:36;;;;;;;7.22;5.40;;;20.50;76.60;;;;;;5077942;27;20047;-64
2021/07/04 06:35:03;;;;;;;5.47;4.97;;;20.50;76.70;;;;;;5078220;28;20040;-64
2021/07/04 06:37:29;;;;;;;6.65;5.00;;;20.50;76.60;;;;;;5068271;27;20062;-63
2021/07/04 06:39:55;;;;;;;4.50;4.03;;;20.60;76.30;;;;;;5065396;28;20040;-64
2021/07/04 06:42:22;;;;;;;5.60;4.50;;;20.60;76.30;;;;;;5068569;28;20047;-64
2021/07/04 06:44:47;;;;;;;5.35;4.30;;;20.60;76.20;;;;;;5069345;27;20032;-63
2021/07/04 06:47:13;;;;;;;6.57;5.90;;;20.60;76.50;;;;;;5065679;27;21132;-65
2021/07/04 06:49:38;;;;;;;5.70;4.82;;;20.60;76.60;;;;;;5067027;27;20105;-64
2021/07/04 06:52:04;;;;;;;5.18;4.68;;;20.60;76.50;;;;;;5066358;27;20041;-64
2021/07/04 06:54:30;;;;;;;5.38;4.88;;;20.60;76.60;;;;;;5067644;27;20056;-63
2021/07/04 06:56:56;;;;;;;5.38;4.88;;;20.70;76.50;;;;;;5072736;27;20077;-63
2021/07/04 06:59:21;;;;;;;5.30;4.80;;;20.70;76.10;;;;;;5066776;27;20104;-64
2021/07/04 07:01:47;;;;;;;8.07;4.80;;;20.70;76.00;;;;;;5072472;28;20122;-63
2021/07/04 07:04:13;;;;;;;5.63;4.88;;;20.70;75.60;;;;;;5066665;28;20066;-64
2021/07/04 07:06:39;;;;;;;5.25;4.82;;;20.70;75.30;;;;;;5071542;27;20048;-64
2021/07/04 07:09:05;;;;;;;5.40;4.90;;;20.60;75.30;;;;;;5067506;28;20048;-64
2021/07/04 07:11:31;;;;;;;5.20;4.72;;;20.70;75.60;;;;;;5073273;28;20097;-64
2021/07/04 07:13:57;;;;;;;5.13;4.63;;;20.70;75.90;;;;;;5066793;27;20067;-64
2021/07/04 07:16:22;;;;;;;6.22;5.30;;;20.70;75.10;;;;;;5066379;27;20036;-65
2021/07/04 07:18:48;;;;;;;7.25;6.55;;;20.70;74.70;;;;;;5065251;28;20045;-64
2021/07/04 07:21:14;;;;;;;6.07;5.28;;;20.70;74.50;;;;;;5073675;27;20139;-64
2021/07/04 07:23:40;;;;;;;5.13;4.70;;;20.70;75.20;;;;;;5083272;28;20028;-65
2021/07/04 07:26:05;;;;;;;5.38;4.38;;;20.80;74.80;;;;;;5085241;27;20048;-64
2021/07/04 07:28:31;;;;;;;4.35;3.95;;;20.80;74.90;;;;;;5078702;27;20040;-64
2021/07/04 07:30:57;;;;;;;5.03;4.43;;;20.90;75.00;;;;;;5080628;28;20439;-64
2021/07/04 07:33:23;;;;;;;4.43;4.03;;;20.90;74.70;;;;;;5083336;27;20036;-64
2021/07/04 07:35:51;;;;;;;5.05;4.07;;;21.00;74.50;;;;;;5083049;28;20052;-64
2021/07/04 07:38:17;;;;;;;4.38;3.97;;;21.10;74.20;;;;;;5082283;27;20430;-65
2021/07/04 07:40:43;;;;;;;5.35;4.85;;;21.20;74.20;;;;;;5084970;28;20580;-65
2021/07/04 07:43:09;;;;;;;5.05;4.65;;;21.30;74.00;;;;;;5080405;27;20031;-64
2021/07/04 07:45:35;;;;;;;5.03;4.60;;;21.40;73.30;;;;;;5075977;27;20028;-64
2021/07/04 07:48:01;;;;;;;5.32;4.50;;;21.40;72.30;;;;;;5089338;28;20024;-65
2021/07/04 07:50:27;;;;;;;5.43;4.80;;;21.50;72.00;;;;;;5079764;27;20039;-64
2021/07/04 07:52:53;;;;;;;5.13;4.57;;;21.50;71.40;;;;;;5082496;28;20309;-64
2021/07/04 07:55:18;;;;;;;4.65;4.13;;;21.40;71.10;;;;;;5079396;27;20027;-65
2021/07/04 07:57:44;;;;;;;5.03;4.53;;;21.40;71.30;;;;;;5081656;28;20376;-64
2021/07/04 08:00:13;;;;;;;5.90;4.07;;;21.30;71.80;;;;;;5083726;27;20043;-64
2021/07/04 08:02:39;;;;;;;4.25;3.90;;;21.40;72.40;;;;;;5082829;27;20110;-64
2021/07/04 08:05:05;;;;;;;4.30;3.65;;;21.40;72.00;;;;;;5083264;28;20500;-64
2021/07/04 08:07:31;;;;;;;4.63;4.22;;;21.40;71.90;;;;;;5084626;27;20039;-64
2021/07/04 08:09:56;;;;;;;4.13;3.67;;;21.40;72.40;;;;;;5084975;28;20032;-64
2021/07/04 08:12:22;;;;;;;3.92;3.63;;;21.50;71.80;;;;;;5082156;27;20024;-64
2021/07/04 08:14:48;;;;;;;5.82;4.45;;;21.60;72.00;;;;;;5083961;28;20055;-64
2021/07/04 08:17:13;;;;;;;4.75;4.35;;;21.60;72.10;;;;;;5082741;27;20032;-64
2021/07/04 08:19:39;;;;;;;4.72;4.15;;;21.60;71.60;;;;;;5081780;28;20518;-64
2021/07/04 08:22:05;;;;;;;4.40;4.00;;;21.60;72.00;;;;;;5084464;27;20068;-64
2021/07/04 08:24:31;;;;;;;4.15;3.72;;;21.70;72.00;;;;;;5084551;27;20044;-64
2021/07/04 08:26:56;;;;;;;4.75;3.95;;;21.80;71.30;;;;;;5084240;28;20182;-65
2021/07/04 08:29:22;;;;;;;4.13;3.72;;;21.90;71.40;;;;;;5081452;27;20024;-64
2021/07/04 08:31:48;;;;;;;4.40;4.00;;;22.00;71.30;;;;;;5078363;28;20032;-64
2021/07/04 08:34:14;;;;;;;4.38;4.05;;;22.10;70.90;;;;;;5081789;27;20051;-64
2021/07/04 08:36:40;;;;;;;3.88;3.58;;;22.20;70.40;;;;;;5081991;27;20036;-64
2021/07/04 08:39:06;;;;;;;3.88;3.25;;;22.20;69.30;;;;;;5079888;28;20039;-64
2021/07/04 08:41:32;;;;;;;4.68;4.28;;;22.30;69.70;;;;;;5084463;27;20040;-64
2021/07/04 08:44:07;;;;;;;4.93;4.53;;;22.30;69.50;;;;;;5078459;28;20032;-64
2021/07/04 08:46:38;;;;;;;5.72;4.43;;;22.40;68.60;;;;;;5082549;27;20031;-64
2021/07/04 08:49:04;;;;;;;4.43;4.03;;;22.40;68.40;;;;;;5083165;27;20523;-64
2021/07/04 08:51:30;;;;;;;4.25;3.85;;;22.50;68.80;;;;;;5084800;28;20043;-64
2021/07/04 08:53:55;;;;;;;4.25;3.85;;;22.50;68.80;;;;;;5082963;27;20104;-65
2021/07/04 08:56:21;;;;;;;4.90;4.40;;;22.60;68.30;;;;;;5085489;28;20162;-64
2021/07/04 08:58:46;;;;;;;6.32;4.47;;;22.60;68.10;;;;;;5101217;27;20112;-64
2021/07/04 09:01:21;;;;;;;3.78;3.47;;;22.70;68.20;;;;;;5084625;27;20032;-64
2021/07/04 09:03:49;;;;;;;4.80;4.43;;;22.70;67.40;;;;;;5086185;28;20534;-64
2021/07/04 09:06:36;;;;;;;4.88;4.40;;;22.70;67.40;;;;;;5086905;27;20071;-64
2021/07/04 09:09:31;;;;;;;4.15;3.75;;;22.70;67.20;;;;;;5085064;27;20047;-64
2021/07/04 09:11:59;;;;;;;4.17;3.77;;;22.80;67.10;;;;;;5100231;27;20718;-64
2021/07/04 09:14:34;;;;;;;4.75;4.18;;;22.80;68.00;;;;;;5085368;27;20804;-65
2021/07/04 09:17:01;;;;;;;4.65;4.25;;;22.90;67.80;;;;;;5085574;27;20035;-64
2021/07/04 09:19:27;;;;;;;4.68;4.10;;;22.90;67.40;;;;;;5084479;28;20032;-64
2021/07/04 09:22:01;;;;;;;4.20;3.80;;;22.90;66.90;;;;;;5086052;27;20032;-64
2021/07/04 09:24:36;;;;;;;4.43;3.75;;;22.90;67.00;;;;;;5083814;27;20064;-64
2021/07/04 09:27:03;;;;;;;;;;;23.00;66.70;;;;;;5087603;28;20059;-64
2021/07/04 09:29:40;;;;;;;3.90;3.60;;;23.10;66.90;;;;;;5086182;28;19920;-64
2021/07/04 09:32:10;;;;;;;3.95;3.65;;;23.20;66.50;;;;;;5085910;28;20032;-64
2021/07/04 09:34:36;;;;;;;4.78;4.13;;;23.20;66.40;;;;;;5084414;27;20572;-64
2021/07/04 09:37:02;;;;;;;3.97;3.67;;;23.30;66.60;;;;;;5086046;27;20048;-64
2021/07/04 09:39:28;;;;;;;3.85;3.55;;;23.40;66.60;;;;;;5086335;28;20433;-64
2021/07/04 09:42:08;;;;;;;5.32;3.15;;;23.40;66.10;;;;;;5084536;28;20036;-64
2021/07/04 09:44:36;;;;;;;3.20;3.00;;;23.50;66.00;;;;;;5085134;27;20047;-64
2021/07/04 09:47:20;;;;;;;3.83;3.47;;;23.60;66.70;;;;;;5085653;28;20044;-64
2021/07/04 09:49:48;;;;;;;2.75;2.55;;;23.70;65.00;;;;;;5081763;27;20600;-64
2021/07/04 09:52:20;;;;;;;2.65;2.50;;;23.80;65.00;;;;;;5076721;28;20069;-64
2021/07/04 09:54:56;;;;;;;2.78;2.58;;;23.90;64.30;;;;;;5074719;28;20033;-64
2021/07/04 09:57:22;;;;;;;3.20;2.90;;;24.00;63.60;;;;;;5084360;27;20168;-64
2021/07/04 09:59:48;;;;;;;3.67;2.70;;;24.10;64.10;;;;;;5086108;28;20040;-64
2021/07/04 10:02:18;;;;;;;2.65;2.45;;;24.20;62.90;;;;;;5088160;27;20040;-64
2021/07/04 10:04:44;;;;;;;2.83;2.38;;;24.20;61.30;;;;;;5084579;27;20031;-64
2021/07/04 10:07:10;;;;;;;4.45;2.50;;;24.30;61.20;;;;;;5086037;27;20081;-64
2021/07/04 10:09:39;;;;;;;2.17;1.98;;;24.40;60.20;;;;;;5089413;27;20063;-64
2021/07/04 10:12:05;;;;;;;3.00;2.70;;;24.40;60.40;;;;;;5087059;28;20094;-64
2021/07/04 10:14:31;;;;;;;2.88;2.58;;;24.40;59.80;;;;;;5089375;27;20380;-64
2021/07/04 10:16:59;;;;;;;2.58;2.38;;;24.40;59.80;;;;;;5088208;27;20082;-64
2021/07/04 10:19:27;;;;;;;3.03;2.83;;;24.40;59.20;;;;;;5101008;27;20039;-64
2021/07/04 10:21:59;;;;;;;2.35;2.25;;;24.40;59.70;;;;;;5085621;27;20032;-64
2021/07/04 10:24:25;;;;;;;2.67;2.47;;;24.50;59.30;;;;;;5087473;27;20058;-65
2021/07/04 10:26:53;;;;;;;2.40;2.30;;;24.50;59.40;;;;;;5088519;28;20036;-65
2021/07/04 10:29:23;;;;;;;2.83;2.47;;;24.50;59.30;;;;;;5088441;27;20056;-64
2021/07/04 10:31:48;;;;;;;2.60;2.40;;;24.60;59.30;;;;;;5088263;27;20035;-64
2021/07/04 10:34:16;;;;;;;2.70;2.50;;;24.60;59.00;;;;;;5093384;27;20024;-65
2021/07/04 10:37:03;;;;;;;2.55;2.35;;;24.60;58.80;;;;;;5093427;27;20035;-65
2021/07/04 10:39:32;;;;;;;2.70;2.50;;;24.60;58.40;;;;;;5087858;28;20036;-64
2021/07/04 10:41:59;;;;;;;3.50;2.55;;;24.60;58.80;;;;;;5087826;27;20097;-64
2021/07/04 10:44:46;;;;;;;3.72;2.63;;;24.50;58.90;;;;;;5088327;27;20107;-64
2021/07/04 10:47:20;;;;;;;2.45;2.25;;;24.50;58.10;;;;;;5086534;28;20052;-65
2021/07/04 10:50:07;;;;;;;3.10;2.38;;;24.50;58.50;;;;;;5084491;27;20035;-64
2021/07/04 10:52:41;;;;;;;2.20;2.10;;;24.50;58.70;;;;;;5080907;27;20032;-64
2021/07/04 10:55:10;;;;;;;3.03;2.35;;;24.50;58.60;;;;;;5083600;28;20036;-64
2021/07/04 10:57:53;;;;;;;2.53;2.10;;;24.50;59.10;;;;;;5088086;27;20406;-64
2021/07/04 11:00:26;;;;;;;2.38;2.08;;;24.50;58.20;;;;;;5087143;28;20057;-64
2021/07/04 11:02:54;;;;;;;1.83;1.73;;;24.60;58.10;;;;;;5086473;28;20055;-65
2021/07/04 11:05:41;;;;;;;1.65;1.55;;;24.60;57.90;;;;;;5087644;27;20067;-64
2021/07/04 11:08:10;;;;;;;1.85;1.70;;;24.60;57.90;;;;;;5086890;27;20051;-64
2021/07/04 11:10:49;;;;;;;2.28;1.70;;;24.60;58.30;;;;;;5087345;27;20024;-64
2021/07/04 11:13:14;;;;;;;1.60;1.50;;;24.70;57.80;;;;;;5085960;28;20034;-64
2021/07/04 11:15:42;;;;;;;1.50;1.40;;;24.70;58.00;;;;;;5088503;28;20036;-65
2021/07/04 11:18:12;;;;;;;1.77;1.67;;;24.70;58.10;;;;;;5081115;28;20036;-64
2021/07/04 11:20:38;;;;;;;1.90;1.70;;;24.80;57.30;;;;;;5087538;27;20044;-65
2021/07/04 11:23:21;;;;;;;1.67;1.58;;;24.80;57.80;;;;;;5087403;28;20032;-64
2021/07/04 11:25:47;;;;;;;1.80;1.70;;;24.90;56.80;;;;;;5103469;27;20030;-64
2021/07/04 11:28:15;;;;;;;1.80;1.70;;;24.90;57.60;;;;;;5088218;28;20028;-65
2021/07/04 11:31:15;;;;;;;1.80;1.70;;;25.00;57.00;;;;;;5086763;27;20483;-64
2021/07/04 11:33:42;;;;;;;1.38;1.27;;;25.00;57.00;;;;;;5085824;27;20031;-64
2021/07/04 11:36:15;;;;;;;1.50;1.40;;;25.00;56.80;;;;;;5087985;28;20111;-65
2021/07/04 11:38:56;;;;;;;2.85;1.38;;;25.00;57.50;;;;;;5087413;27;20077;-64
2021/07/04 11:41:29;;;;;;;1.98;1.88;;;25.10;57.90;;;;;;5086862;27;20051;-64
2021/07/04 11:44:10;;;;;;;1.77;1.67;;;25.10;56.00;;;;;;5082930;28;20062;-64
2021/07/04 11:46:39;;;;;;;1.65;1.55;;;25.10;56.60;;;;;;5085056;27;20032;-64
2021/07/04 11:49:09;;;;;;;1.73;1.63;;;25.20;56.80;;;;;;5077729;27;20491;-65
2021/07/04 11:51:45;;;;;;;2.65;1.80;;;25.10;57.10;;;;;;5082685;28;20488;-65
2021/07/04 11:54:14;;;;;;;1.63;1.52;;;25.20;57.30;;;;;;5101123;27;22258;-64
2021/07/04 11:56:42;;;;;;;2.65;1.95;;;25.20;57.40;;;;;;5082658;27;20059;-65
2021/07/04 11:59:17;;;;;;;1.75;1.65;;;25.20;56.90;;;;;;5087319;28;20112;-65
2021/07/04 12:01:56;;;;;;;1.98;1.75;;;25.30;57.10;;;;;;5087731;27;20044;-65
2021/07/04 12:04:36;;;;;;;2.15;2.00;;;25.30;56.50;;;;;;5084186;27;20040;-65
2021/07/04 12:07:04;;;;;;;1.70;1.60;;;25.30;56.20;;;;;;5085708;28;20451;-65
2021/07/04 12:09:41;;;;;;;2.00;1.90;;;25.30;56.50;;;;;;5086348;27;20040;-65
2021/07/04 12:12:19;;;;;;;1.70;1.60;;;25.30;56.60;;;;;;5083830;28;20029;-65
2021/07/04 12:15:07;;;;;;;1.73;1.63;;;25.30;56.70;;;;;;5083206;27;20111;-65
2021/07/04 12:17:35;;;;;;;1.60;1.50;;;25.20;56.90;;;;;;5086434;27;20036;-65
2021/07/04 12:20:08;;;;;;;1.55;1.45;;;25.20;56.80;;;;;;5080320;27;20032;-65
2021/07/04 12:22:51;;;;;;;1.55;1.45;;;25.30;56.80;;;;;;5085333;28;20055;-65
2021/07/04 12:25:18;;;;;;;1.60;1.50;;;25.30;56.50;;;;;;5086590;27;20036;-65
2021/07/04 12:27:49;;;;;;;1.42;1.33;;;25.30;57.00;;;;;;5079966;28;20040;-65
2021/07/04 12:30:16;;;;;;;1.38;1.27;;;25.30;56.90;;;;;;5086906;27;20032;-65
2021/07/04 12:32:53;;;;;;;1.65;1.55;;;25.30;56.70;;;;;;5084564;27;20133;-65
2021/07/04 12:35:20;;;;;;;1.30;1.05;;;25.40;57.40;;;;;;5085704;28;20028;-65
2021/07/04 12:37:46;;;;;;;1.10;1.10;;;25.40;57.10;;;;;;5086829;27;20068;-65
2021/07/04 12:40:17;;;;;;;1.42;1.33;;;25.50;57.20;;;;;;5083572;28;20084;-65
2021/07/04 12:42:43;;;;;;;1.40;1.30;;;25.50;56.90;;;;;;5094829;27;20045;-65
2021/07/04 12:45:15;;;;;;;1.45;1.35;;;25.60;56.80;;;;;;5083249;28;20032;-65
2021/07/04 12:47:41;;;;;;;1.40;1.30;;;25.60;56.60;;;;;;5084856;28;20036;-65
2021/07/04 12:50:15;;;;;;;1.15;1.15;;;25.60;57.00;;;;;;5085595;27;20032;-65